Dynasty — A8TP3 — position and weather

sailwx.info

Track history (hours):
 
Tides and Currents Weather Stations Pressure Air Temp Water Temp Dewpoint Dewpoint Depression Visibility Wind Speed Wind Dir Waves Ship Positions

Dynasty

Last reported at 2017-Oct-17 13:30 UTC. Time now 2017-Oct-17 13:51 UTC.
Position N 39°02' E 019°31'.

Length 241 m; draft 8 m.

Type: Tanker. MMSI: 636014400.

Date/timePositionNaut miles runAvg speedWind from/ knotsBaromVisibWave heightAir tempDewpointWater temp
2017-Oct-17 13:30N 39°02' E 019°31'612.0
2017-Oct-17 13:00N 39°08' E 019°31'911.9
2017-Oct-17 12:14N 39°16' E 019°26'311.8
2017-Oct-17 12:00N 39°19' E 019°25'611.8
2017-Oct-17 11:30N 39°24' E 019°23'611.8
2017-Oct-17 11:00N 39°30' E 019°20'611.7
2017-Oct-17 10:30N 39°35' E 019°17'611.9
2017-Oct-17 10:00N 39°41' E 019°14'611.8
2017-Oct-17 09:30N 39°46' E 019°12'611.9
2017-Oct-17 09:00N 39°52' E 019°08'611.8
2017-Oct-17 08:30N 39°57' E 019°05'612.2
2017-Oct-17 08:00N 40°03' E 019°02'712.5
2017-Oct-17 07:25N 40°09' E 018°58'512.2
2017-Oct-17 07:00N 40°14' E 018°56'612.0
2017-Oct-17 06:30N 40°20' E 018°53'611.4
2017-Oct-17 05:56N 40°26' E 018°49'811.5
2017-Oct-17 05:17N 40°32' E 018°45'311.8
2017-Oct-17 05:00N 40°36' E 018°43'611.7
2017-Oct-17 04:30N 40°40' E 018°38'612.0
2017-Oct-17 04:00N 40°43' E 018°32'612.1
2017-Oct-17 03:30N 40°47' E 018°25'612.1
2017-Oct-17 03:00N 40°50' E 018°19'612.0
2017-Oct-17 02:30N 40°54' E 018°12'2911.9
2017-Oct-17 00:03N 41°11' E 017°41'511.8
2017-Oct-16 23:37N 41°14' E 017°35'1511.9
2017-Oct-16 22:21N 41°23' E 017°19'3811.9
2017-Oct-16 19:11N 41°48' E 016°42'312.0
2017-Oct-16 18:58N 41°50' E 016°39'611.9
2017-Oct-16 18:29N 41°54' E 016°34'6412.0
2017-Oct-16 13:07N 42°41' E 015°34'211.9
2017-Oct-16 12:55N 42°43' E 015°32'3912.1
2017-Oct-16 09:43N 43°12' E 014°58'312.2
2017-Oct-16 09:29N 43°14' E 014°56'1012.1
2017-Oct-16 08:38N 43°23' E 014°47'112.2
2017-Oct-16 08:30N 43°24' E 014°46'612.0
2017-Oct-16 07:59N 43°29' E 014°41'611.9
2017-Oct-16 07:29N 43°34' E 014°37'611.8
2017-Oct-16 07:00N 43°38' E 014°31'611.8
2017-Oct-16 06:27N 43°43' E 014°26'511.8
2017-Oct-16 06:00N 43°47' E 014°21'611.8
2017-Oct-16 05:29N 43°52' E 014°16'611.9
2017-Oct-16 05:00N 43°57' E 014°12'611.9
2017-Oct-16 04:30N 44°02' E 014°07'611.9
2017-Oct-16 04:00N 44°06' E 014°02'612.1
2017-Oct-16 03:30N 44°11' E 013°57'612.1
2017-Oct-16 03:00N 44°16' E 013°52'612.0
2017-Oct-16 02:30N 44°21' E 013°48'611.9
2017-Oct-16 02:00N 44°26' E 013°43'611.8
2017-Oct-16 01:30N 44°31' E 013°39'611.9
2017-Oct-16 01:00N 44°36' E 013°34'612.0
2017-Oct-16 00:30N 44°41' E 013°30'612.1
2017-Oct-16 00:00N 44°46' E 013°25'612.3
2017-Oct-15 23:30N 44°51' E 013°20'612.0
2017-Oct-15 23:00N 44°57' E 013°15'612.0
2017-Oct-15 22:30N 45°02' E 013°11'612.2
2017-Oct-15 22:00N 45°07' E 013°06'612.0
2017-Oct-15 21:30N 45°12' E 013°03'612.0
2017-Oct-15 21:00N 45°18' E 013°01'510.4
2017-Oct-15 20:30N 45°23' E 013°01'611.9
2017-Oct-15 20:00N 45°28' E 013°07'611.6
2017-Oct-15 19:30N 45°31' E 013°13'611.9
2017-Oct-15 19:00N 45°34' E 013°21'612.0
2017-Oct-15 18:30N 45°37' E 013°28'611.3
2017-Oct-15 18:00N 45°38' E 013°36'4 8.2
2017-Oct-15 17:30N 45°37' E 013°42'3 5.9
2017-Oct-15 17:00N 45°37' E 013°46'0 0.7
2017-Oct-15 16:30N 45°37' E 013°47'0 0.0
2017-Oct-15 15:54N 45°37' E 013°47'0 0.0
2017-Oct-15 15:30N 45°37' E 013°47'0 0.0
2017-Oct-15 14:54N 45°37' E 013°47'0 0.0
2017-Oct-15 14:00N 45°37' E 013°47'0 0.0
2017-Oct-15 13:21N 45°37' E 013°47'0 0.0
2017-Oct-15 13:00N 45°37' E 013°47'0 0.0
2017-Oct-15 12:30N 45°37' E 013°47'0 0.0
2017-Oct-15 12:00N 45°37' E 013°47'0 0.0
2017-Oct-15 11:30N 45°37' E 013°47'0 0.0
2017-Oct-15 11:00N 45°37' E 013°47'0 0.0
2017-Oct-15 10:30N 45°37' E 013°47'0 0.0
2017-Oct-15 10:00N 45°37' E 013°47'0 0.0
2017-Oct-15 09:30N 45°37' E 013°47'0 0.0
2017-Oct-15 09:00N 45°37' E 013°47'0 0.0
2017-Oct-15 08:30N 45°37' E 013°47'0 0.0
2017-Oct-15 08:00N 45°37' E 013°47'0 0.0
2017-Oct-15 07:24N 45°37' E 013°47'0 0.0
2017-Oct-15 07:00N 45°37' E 013°47'0 0.0
2017-Oct-15 06:30N 45°37' E 013°47'0 0.0
2017-Oct-15 05:57N 45°37' E 013°47'0 0.0
2017-Oct-15 05:30N 45°37' E 013°47'0 0.0
2017-Oct-15 05:00N 45°37' E 013°47'0 0.0
2017-Oct-15 04:30N 45°37' E 013°47'0 0.0
2017-Oct-15 04:00N 45°37' E 013°47'0 0.0
2017-Oct-15 03:21N 45°37' E 013°47'0 0.0
2017-Oct-15 03:00N 45°37' E 013°47'0 0.0
2017-Oct-15 02:30N 45°37' E 013°47'0 0.0
2017-Oct-15 01:51N 45°37' E 013°47'0 0.0
2017-Oct-15 01:27N 45°37' E 013°47'0 0.0
2017-Oct-15 01:00N 45°37' E 013°47'0 0.0
2017-Oct-15 00:27N 45°37' E 013°47'0 0.0
2017-Oct-14 23:54N 45°37' E 013°47'0 0.0
2017-Oct-14 23:27N 45°37' E 013°47'0 0.0
2017-Oct-14 22:57N 45°37' E 013°47'0 0.0
2017-Oct-14 22:06N 45°37' E 013°47'0 0.0
2017-Oct-14 22:00N 45°37' E 013°47'0 0.0
2017-Oct-14 21:12N 45°37' E 013°47'0 0.1
2017-Oct-14 21:00N 45°37' E 013°47'0 0.0
2017-Oct-14 20:30N 45°37' E 013°47'0 0.0
2017-Oct-14 19:57N 45°37' E 013°47'0 0.0
2017-Oct-14 19:30N 45°37' E 013°47'0 0.0
2017-Oct-14 19:00N 45°37' E 013°47'0 0.0
2017-Oct-14 18:27N 45°37' E 013°47'0 0.0
2017-Oct-14 18:00N 45°37' E 013°47'0 0.0
2017-Oct-14 17:30N 45°37' E 013°47'0 0.0
2017-Oct-14 16:54N 45°37' E 013°47'0 0.0
2017-Oct-14 16:30N 45°37' E 013°47'0 0.0
2017-Oct-14 16:00N 45°37' E 013°47'0 0.0
2017-Oct-14 15:30N 45°37' E 013°47'0 0.0
2017-Oct-14 15:00N 45°37' E 013°47'0 0.0
2017-Oct-14 14:21N 45°37' E 013°47'0 0.0
2017-Oct-14 13:57N 45°37' E 013°47'0 0.0
2017-Oct-14 13:30N 45°37' E 013°47'0 0.0
2017-Oct-14 13:00N 45°37' E 013°47'0 0.0
2017-Oct-14 12:30N 45°37' E 013°47'0 0.0
2017-Oct-14 12:00N 45°37' E 013°47'0 0.0
2017-Oct-14 11:30N 45°37' E 013°47'0 0.0
2017-Oct-14 11:00N 45°37' E 013°47'0 0.0
2017-Oct-14 10:27N 45°37' E 013°47'0 0.0
2017-Oct-14 10:00N 45°37' E 013°47'0 0.0
2017-Oct-14 09:30N 45°37' E 013°47'0 0.0
2017-Oct-14 08:54N 45°37' E 013°47'0 0.0
2017-Oct-14 08:12N 45°37' E 013°47'0 0.0
2017-Oct-14 08:00N 45°37' E 013°47'0 0.0
2017-Oct-14 07:30N 45°37' E 013°47'0 0.0
2017-Oct-14 07:00N 45°37' E 013°47'0 0.0
2017-Oct-14 06:24N 45°37' E 013°47'0 0.0
2017-Oct-14 05:54N 45°37' E 013°47'0 0.0
2017-Oct-14 05:30N 45°37' E 013°47'0 0.0
2017-Oct-14 05:00N 45°37' E 013°47'0 0.0
2017-Oct-14 04:30N 45°37' E 013°47'0 0.0
2017-Oct-14 03:57N 45°37' E 013°47'0 0.0
2017-Oct-14 03:27N 45°37' E 013°47'0 0.0
2017-Oct-14 03:00N 45°37' E 013°47'0 0.0
2017-Oct-14 02:30N 45°37' E 013°47'0 0.0
2017-Oct-14 01:51N 45°37' E 013°47'0 0.0
2017-Oct-14 01:30N 45°37' E 013°47'0 0.0
2017-Oct-14 01:00N 45°37' E 013°47'0 0.0
2017-Oct-14 00:27N 45°37' E 013°47'0 0.0
2017-Oct-14 00:00N 45°37' E 013°47'0 0.0
2017-Oct-13 23:30N 45°37' E 013°47'0 0.0
2017-Oct-13 23:00N 45°37' E 013°47'1 2.7
2017-Oct-13 22:30N 45°37' E 013°45'2 4.3
2017-Oct-13 22:00N 45°38' E 013°42'0 0.2
2017-Oct-13 21:27N 45°38' E 013°42'0 0.1
2017-Oct-13 21:00N 45°38' E 013°42'0 0.1
2017-Oct-13 20:27N 45°38' E 013°42'0 0.1
2017-Oct-13 20:00N 45°38' E 013°42'0 0.2
2017-Oct-13 19:30N 45°38' E 013°42'0 0.2
2017-Oct-13 18:54N 45°38' E 013°42'0 0.1
2017-Oct-13 18:30N 45°38' E 013°42'0 0.0
2017-Oct-13 17:57N 45°38' E 013°42'0 0.0
2017-Oct-13 17:24N 45°38' E 013°42'0 0.0
2017-Oct-13 17:00N 45°38' E 013°42'0 0.0
2017-Oct-13 16:21N 45°38' E 013°42'0 0.0
2017-Oct-13 16:00N 45°38' E 013°42'0 0.0
2017-Oct-13 15:27N 45°38' E 013°42'0 0.0
2017-Oct-13 15:00N 45°38' E 013°42'0 0.0
2017-Oct-13 14:30N 45°38' E 013°42'0 0.0
2017-Oct-13 14:00N 45°38' E 013°42'0 0.0
2017-Oct-13 13:30N 45°38' E 013°42'0 0.0
2017-Oct-13 13:00N 45°38' E 013°42'0 0.0
2017-Oct-13 12:30N 45°38' E 013°42'0 0.0
2017-Oct-13 11:48N 45°38' E 013°42'0 0.0
2017-Oct-13 11:30N 45°38' E 013°42'0 0.0
2017-Oct-13 11:00N 45°38' E 013°42'0 0.1
2017-Oct-13 10:30N 45°38' E 013°42'0 0.2
2017-Oct-13 10:00N 45°38' E 013°42'0 0.1
2017-Oct-13 09:30N 45°38' E 013°42'0 0.1
2017-Oct-13 09:00N 45°38' E 013°42'0 0.1
2017-Oct-13 08:27N 45°38' E 013°42'0 0.0
2017-Oct-13 08:00N 45°38' E 013°42'0 0.1
2017-Oct-13 07:30N 45°38' E 013°42'2 3.3
2017-Oct-13 07:00N 45°37' E 013°40'5 9.5
2017-Oct-13 06:30N 45°35' E 013°34'510.6
2017-Oct-13 06:01N 45°33' E 013°27'510.6
2017-Oct-13 05:30N 45°30' E 013°21'510.7
2017-Oct-13 05:00N 45°27' E 013°15'510.1
2017-Oct-13 04:30N 45°22' E 013°11'511.0
2017-Oct-13 04:01N 45°17' E 013°13'611.1
2017-Oct-13 03:31N 45°12' E 013°15'611.2
2017-Oct-13 03:00N 45°06' E 013°17'611.0
2017-Oct-13 02:30N 45°01' E 013°18'510.9
2017-Oct-13 02:00N 44°56' E 013°23'611.3
2017-Oct-13 01:30N 44°52' E 013°27'611.2
2017-Oct-13 01:00N 44°47' E 013°31'611.6
2017-Oct-13 00:30N 44°42' E 013°36'612.0
2017-Oct-13 00:01N 44°37' E 013°41'612.0
2017-Oct-12 23:30N 44°32' E 013°45'612.0
2017-Oct-12 23:00N 44°27' E 013°49'612.0
2017-Oct-12 22:30N 44°22' E 013°54'612.1
2017-Oct-12 22:00N 44°17' E 013°59'612.0
2017-Oct-12 21:30N 44°12' E 014°03'712.0
2017-Oct-12 20:55N 44°06' E 014°09'511.8
2017-Oct-12 20:29N 44°02' E 014°13'611.9
2017-Oct-12 20:00N 43°57' E 014°17'711.9
2017-Oct-12 19:25N 43°51' E 014°23'21211.8
2017-Oct-12 01:23N 41°21' E 017°45'2711.8
2017-Oct-11 23:08N 41°04' E 018°13'612.0
2017-Oct-11 22:36N 41°00' E 018°20'111.8
2017-Oct-11 22:30N 40°60' E 018°21'1211.9
2017-Oct-11 21:30N 40°52' E 018°33'712.0
2017-Oct-11 20:56N 40°47' E 018°39'712.0
2017-Oct-11 20:21N 40°41' E 018°45'412.1
2017-Oct-11 20:00N 40°38' E 018°49'611.6
2017-Oct-11 19:30N 40°34' E 018°54'611.3
2017-Oct-11 18:57N 40°28' E 018°57'511.6
2017-Oct-11 18:30N 40°23' E 018°59'611.4
2017-Oct-11 18:00N 40°18' E 019°01'1311.0
2017-Oct-11 16:52N 40°06' E 019°06'  
2017-Oct-07 13:33N 40°52' E 028°32'  
Track history (hours):
 
Tides and Currents Weather Stations Pressure Air Temp Water Temp Dewpoint Dewpoint Depression Visibility Wind Speed Wind Dir Waves Ship Positions

Dynasty

Last reported at 2017-Oct-17 13:30 UTC. Time now 2017-Oct-17 13:51 UTC.
Position N 39°02' E 019°31'.

Length 241 m; draft 8 m.

Type: Tanker. MMSI: 636014400.

Date/timePositionNaut miles runAvg speedWind from/ knotsBaromVisibWave heightAir tempDewpointWater temp
2017-Oct-17 13:30N 39°02' E 019°31'612.0
2017-Oct-17 13:00N 39°08' E 019°31'911.9
2017-Oct-17 12:14N 39°16' E 019°26'311.8
2017-Oct-17 12:00N 39°19' E 019°25'611.8
2017-Oct-17 11:30N 39°24' E 019°23'611.8
2017-Oct-17 11:00N 39°30' E 019°20'611.7
2017-Oct-17 10:30N 39°35' E 019°17'611.9
2017-Oct-17 10:00N 39°41' E 019°14'611.8
2017-Oct-17 09:30N 39°46' E 019°12'611.9
2017-Oct-17 09:00N 39°52' E 019°08'611.8
2017-Oct-17 08:30N 39°57' E 019°05'612.2
2017-Oct-17 08:00N 40°03' E 019°02'712.5
2017-Oct-17 07:25N 40°09' E 018°58'512.2
2017-Oct-17 07:00N 40°14' E 018°56'612.0
2017-Oct-17 06:30N 40°20' E 018°53'611.4
2017-Oct-17 05:56N 40°26' E 018°49'811.5
2017-Oct-17 05:17N 40°32' E 018°45'311.8
2017-Oct-17 05:00N 40°36' E 018°43'611.7
2017-Oct-17 04:30N 40°40' E 018°38'612.0
2017-Oct-17 04:00N 40°43' E 018°32'612.1
2017-Oct-17 03:30N 40°47' E 018°25'612.1
2017-Oct-17 03:00N 40°50' E 018°19'612.0
2017-Oct-17 02:30N 40°54' E 018°12'2911.9
2017-Oct-17 00:03N 41°11' E 017°41'511.8
2017-Oct-16 23:37N 41°14' E 017°35'1511.9
2017-Oct-16 22:21N 41°23' E 017°19'3811.9
2017-Oct-16 19:11N 41°48' E 016°42'312.0
2017-Oct-16 18:58N 41°50' E 016°39'611.9
2017-Oct-16 18:29N 41°54' E 016°34'6412.0
2017-Oct-16 13:07N 42°41' E 015°34'211.9
2017-Oct-16 12:55N 42°43' E 015°32'3912.1
2017-Oct-16 09:43N 43°12' E 014°58'312.2
2017-Oct-16 09:29N 43°14' E 014°56'1012.1
2017-Oct-16 08:38N 43°23' E 014°47'112.2
2017-Oct-16 08:30N 43°24' E 014°46'612.0
2017-Oct-16 07:59N 43°29' E 014°41'611.9
2017-Oct-16 07:29N 43°34' E 014°37'611.8
2017-Oct-16 07:00N 43°38' E 014°31'611.8
2017-Oct-16 06:27N 43°43' E 014°26'511.8
2017-Oct-16 06:00N 43°47' E 014°21'611.8
2017-Oct-16 05:29N 43°52' E 014°16'611.9
2017-Oct-16 05:00N 43°57' E 014°12'611.9
2017-Oct-16 04:30N 44°02' E 014°07'611.9
2017-Oct-16 04:00N 44°06' E 014°02'612.1
2017-Oct-16 03:30N 44°11' E 013°57'612.1
2017-Oct-16 03:00N 44°16' E 013°52'612.0
2017-Oct-16 02:30N 44°21' E 013°48'611.9
2017-Oct-16 02:00N 44°26' E 013°43'611.8
2017-Oct-16 01:30N 44°31' E 013°39'611.9
2017-Oct-16 01:00N 44°36' E 013°34'612.0
2017-Oct-16 00:30N 44°41' E 013°30'612.1
2017-Oct-16 00:00N 44°46' E 013°25'612.3
2017-Oct-15 23:30N 44°51' E 013°20'612.0
2017-Oct-15 23:00N 44°57' E 013°15'612.0
2017-Oct-15 22:30N 45°02' E 013°11'612.2
2017-Oct-15 22:00N 45°07' E 013°06'612.0
2017-Oct-15 21:30N 45°12' E 013°03'612.0
2017-Oct-15 21:00N 45°18' E 013°01'510.4
2017-Oct-15 20:30N 45°23' E 013°01'611.9
2017-Oct-15 20:00N 45°28' E 013°07'611.6
2017-Oct-15 19:30N 45°31' E 013°13'611.9
2017-Oct-15 19:00N 45°34' E 013°21'612.0
2017-Oct-15 18:30N 45°37' E 013°28'611.3
2017-Oct-15 18:00N 45°38' E 013°36'4 8.2
2017-Oct-15 17:30N 45°37' E 013°42'3 5.9
2017-Oct-15 17:00N 45°37' E 013°46'0 0.7
2017-Oct-15 16:30N 45°37' E 013°47'0 0.0
2017-Oct-15 15:54N 45°37' E 013°47'0 0.0
2017-Oct-15 15:30N 45°37' E 013°47'0 0.0
2017-Oct-15 14:54N 45°37' E 013°47'0 0.0
2017-Oct-15 14:00N 45°37' E 013°47'0 0.0
2017-Oct-15 13:21N 45°37' E 013°47'0 0.0
2017-Oct-15 13:00N 45°37' E 013°47'0 0.0
2017-Oct-15 12:30N 45°37' E 013°47'0 0.0
2017-Oct-15 12:00N 45°37' E 013°47'0 0.0
2017-Oct-15 11:30N 45°37' E 013°47'0 0.0
2017-Oct-15 11:00N 45°37' E 013°47'0 0.0
2017-Oct-15 10:30N 45°37' E 013°47'0 0.0
2017-Oct-15 10:00N 45°37' E 013°47'0 0.0
2017-Oct-15 09:30N 45°37' E 013°47'0 0.0
2017-Oct-15 09:00N 45°37' E 013°47'0 0.0
2017-Oct-15 08:30N 45°37' E 013°47'0 0.0
2017-Oct-15 08:00N 45°37' E 013°47'0 0.0
2017-Oct-15 07:24N 45°37' E 013°47'0 0.0
2017-Oct-15 07:00N 45°37' E 013°47'0 0.0
2017-Oct-15 06:30N 45°37' E 013°47'0 0.0
2017-Oct-15 05:57N 45°37' E 013°47'0 0.0
2017-Oct-15 05:30N 45°37' E 013°47'0 0.0
2017-Oct-15 05:00N 45°37' E 013°47'0 0.0
2017-Oct-15 04:30N 45°37' E 013°47'0 0.0
2017-Oct-15 04:00N 45°37' E 013°47'0 0.0
2017-Oct-15 03:21N 45°37' E 013°47'0 0.0
2017-Oct-15 03:00N 45°37' E 013°47'0 0.0
2017-Oct-15 02:30N 45°37' E 013°47'0 0.0
2017-Oct-15 01:51N 45°37' E 013°47'0 0.0
2017-Oct-15 01:27N 45°37' E 013°47'0 0.0
2017-Oct-15 01:00N 45°37' E 013°47'0 0.0
2017-Oct-15 00:27N 45°37' E 013°47'0 0.0
2017-Oct-14 23:54N 45°37' E 013°47'0 0.0
2017-Oct-14 23:27N 45°37' E 013°47'0 0.0
2017-Oct-14 22:57N 45°37' E 013°47'0 0.0
2017-Oct-14 22:06N 45°37' E 013°47'0 0.0
2017-Oct-14 22:00N 45°37' E 013°47'0 0.0
2017-Oct-14 21:12N 45°37' E 013°47'0 0.1
2017-Oct-14 21:00N 45°37' E 013°47'0 0.0
2017-Oct-14 20:30N 45°37' E 013°47'0 0.0
2017-Oct-14 19:57N 45°37' E 013°47'0 0.0
2017-Oct-14 19:30N 45°37' E 013°47'0 0.0
2017-Oct-14 19:00N 45°37' E 013°47'0 0.0
2017-Oct-14 18:27N 45°37' E 013°47'0 0.0
2017-Oct-14 18:00N 45°37' E 013°47'0 0.0
2017-Oct-14 17:30N 45°37' E 013°47'0 0.0
2017-Oct-14 16:54N 45°37' E 013°47'0 0.0
2017-Oct-14 16:30N 45°37' E 013°47'0 0.0
2017-Oct-14 16:00N 45°37' E 013°47'0 0.0
2017-Oct-14 15:30N 45°37' E 013°47'0 0.0
2017-Oct-14 15:00N 45°37' E 013°47'0 0.0
2017-Oct-14 14:21N 45°37' E 013°47'0 0.0
2017-Oct-14 13:57N 45°37' E 013°47'0 0.0
2017-Oct-14 13:30N 45°37' E 013°47'0 0.0
2017-Oct-14 13:00N 45°37' E 013°47'0 0.0
2017-Oct-14 12:30N 45°37' E 013°47'0 0.0
2017-Oct-14 12:00N 45°37' E 013°47'0 0.0
2017-Oct-14 11:30N 45°37' E 013°47'0 0.0
2017-Oct-14 11:00N 45°37' E 013°47'0 0.0
2017-Oct-14 10:27N 45°37' E 013°47'0 0.0
2017-Oct-14 10:00N 45°37' E 013°47'0 0.0
2017-Oct-14 09:30N 45°37' E 013°47'0 0.0
2017-Oct-14 08:54N 45°37' E 013°47'0 0.0
2017-Oct-14 08:12N 45°37' E 013°47'0 0.0
2017-Oct-14 08:00N 45°37' E 013°47'0 0.0
2017-Oct-14 07:30N 45°37' E 013°47'0 0.0
2017-Oct-14 07:00N 45°37' E 013°47'0 0.0
2017-Oct-14 06:24N 45°37' E 013°47'0 0.0
2017-Oct-14 05:54N 45°37' E 013°47'0 0.0
2017-Oct-14 05:30N 45°37' E 013°47'0 0.0
2017-Oct-14 05:00N 45°37' E 013°47'0 0.0
2017-Oct-14 04:30N 45°37' E 013°47'0 0.0
2017-Oct-14 03:57N 45°37' E 013°47'0 0.0
2017-Oct-14 03:27N 45°37' E 013°47'0 0.0
2017-Oct-14 03:00N 45°37' E 013°47'0 0.0
2017-Oct-14 02:30N 45°37' E 013°47'0 0.0
2017-Oct-14 01:51N 45°37' E 013°47'0 0.0
2017-Oct-14 01:30N 45°37' E 013°47'0 0.0
2017-Oct-14 01:00N 45°37' E 013°47'0 0.0
2017-Oct-14 00:27N 45°37' E 013°47'0 0.0
2017-Oct-14 00:00N 45°37' E 013°47'0 0.0
2017-Oct-13 23:30N 45°37' E 013°47'0 0.0
2017-Oct-13 23:00N 45°37' E 013°47'1 2.7
2017-Oct-13 22:30N 45°37' E 013°45'2 4.3
2017-Oct-13 22:00N 45°38' E 013°42'0 0.2
2017-Oct-13 21:27N 45°38' E 013°42'0 0.1
2017-Oct-13 21:00N 45°38' E 013°42'0 0.1
2017-Oct-13 20:27N 45°38' E 013°42'0 0.1
2017-Oct-13 20:00N 45°38' E 013°42'0 0.2
2017-Oct-13 19:30N 45°38' E 013°42'0 0.2
2017-Oct-13 18:54N 45°38' E 013°42'0 0.1
2017-Oct-13 18:30N 45°38' E 013°42'0 0.0
2017-Oct-13 17:57N 45°38' E 013°42'0 0.0
2017-Oct-13 17:24N 45°38' E 013°42'0 0.0
2017-Oct-13 17:00N 45°38' E 013°42'0 0.0
2017-Oct-13 16:21N 45°38' E 013°42'0 0.0
2017-Oct-13 16:00N 45°38' E 013°42'0 0.0
2017-Oct-13 15:27N 45°38' E 013°42'0 0.0
2017-Oct-13 15:00N 45°38' E 013°42'0 0.0
2017-Oct-13 14:30N 45°38' E 013°42'0 0.0
2017-Oct-13 14:00N 45°38' E 013°42'0 0.0
2017-Oct-13 13:30N 45°38' E 013°42'0 0.0
2017-Oct-13 13:00N 45°38' E 013°42'0 0.0
2017-Oct-13 12:30N 45°38' E 013°42'0 0.0
2017-Oct-13 11:48N 45°38' E 013°42'0 0.0
2017-Oct-13 11:30N 45°38' E 013°42'0 0.0
2017-Oct-13 11:00N 45°38' E 013°42'0 0.1
2017-Oct-13 10:30N 45°38' E 013°42'0 0.2
2017-Oct-13 10:00N 45°38' E 013°42'0 0.1
2017-Oct-13 09:30N 45°38' E 013°42'0 0.1
2017-Oct-13 09:00N 45°38' E 013°42'0 0.1
2017-Oct-13 08:27N 45°38' E 013°42'0 0.0
2017-Oct-13 08:00N 45°38' E 013°42'0 0.1
2017-Oct-13 07:30N 45°38' E 013°42'2 3.3
2017-Oct-13 07:00N 45°37' E 013°40'5 9.5
2017-Oct-13 06:30N 45°35' E 013°34'510.6
2017-Oct-13 06:01N 45°33' E 013°27'510.6
2017-Oct-13 05:30N 45°30' E 013°21'510.7
2017-Oct-13 05:00N 45°27' E 013°15'510.1
2017-Oct-13 04:30N 45°22' E 013°11'511.0
2017-Oct-13 04:01N 45°17' E 013°13'611.1
2017-Oct-13 03:31N 45°12' E 013°15'611.2
2017-Oct-13 03:00N 45°06' E 013°17'611.0
2017-Oct-13 02:30N 45°01' E 013°18'510.9
2017-Oct-13 02:00N 44°56' E 013°23'611.3
2017-Oct-13 01:30N 44°52' E 013°27'611.2
2017-Oct-13 01:00N 44°47' E 013°31'611.6
2017-Oct-13 00:30N 44°42' E 013°36'612.0
2017-Oct-13 00:01N 44°37' E 013°41'612.0
2017-Oct-12 23:30N 44°32' E 013°45'612.0
2017-Oct-12 23:00N 44°27' E 013°49'612.0
2017-Oct-12 22:30N 44°22' E 013°54'612.1
2017-Oct-12 22:00N 44°17' E 013°59'612.0
2017-Oct-12 21:30N 44°12' E 014°03'712.0
2017-Oct-12 20:55N 44°06' E 014°09'511.8
2017-Oct-12 20:29N 44°02' E 014°13'611.9
2017-Oct-12 20:00N 43°57' E 014°17'711.9
2017-Oct-12 19:25N 43°51' E 014°23'21211.8
2017-Oct-12 01:23N 41°21' E 017°45'2711.8
2017-Oct-11 23:08N 41°04' E 018°13'612.0
2017-Oct-11 22:36N 41°00' E 018°20'111.8
2017-Oct-11 22:30N 40°60' E 018°21'1211.9
2017-Oct-11 21:30N 40°52' E 018°33'712.0
2017-Oct-11 20:56N 40°47' E 018°39'712.0
2017-Oct-11 20:21N 40°41' E 018°45'412.1
2017-Oct-11 20:00N 40°38' E 018°49'611.6
2017-Oct-11 19:30N 40°34' E 018°54'611.3
2017-Oct-11 18:57N 40°28' E 018°57'511.6
2017-Oct-11 18:30N 40°23' E 018°59'611.4
2017-Oct-11 18:00N 40°18' E 019°01'1311.0
2017-Oct-11 16:52N 40°06' E 019°06'  
2017-Oct-07 13:33N 40°52' E 028°32'  

Dump ship's entire track history